createdAt,value
2023-05-11T00:01:08.346Z,15.64
2023-05-11T00:03:36.492Z,15.63
2023-05-11T00:06:04.351Z,15.65
2023-05-11T00:08:31.890Z,15.69
2023-05-11T00:11:02.527Z,15.69
2023-05-11T00:13:30.122Z,15.71
2023-05-11T00:15:58.165Z,15.67
2023-05-11T00:18:26.073Z,15.70
2023-05-11T00:20:54.492Z,15.69
2023-05-11T00:23:22.071Z,15.71
2023-05-11T00:25:49.573Z,15.75
2023-05-11T00:28:17.056Z,15.77
2023-05-11T00:30:45.304Z,15.81
2023-05-11T00:33:12.841Z,15.78
2023-05-11T00:35:40.488Z,15.74
2023-05-11T00:38:07.980Z,15.74
2023-05-11T00:40:35.806Z,15.71
2023-05-11T00:43:03.361Z,15.74
2023-05-11T00:45:30.966Z,15.74
2023-05-11T00:47:58.732Z,15.75
2023-05-11T00:50:27.098Z,15.73
2023-05-11T00:52:57.662Z,15.75
2023-05-11T00:55:26.197Z,15.78
2023-05-11T00:57:53.952Z,15.75
2023-05-11T01:00:21.806Z,15.75
2023-05-11T01:02:49.647Z,15.71
2023-05-11T01:05:17.472Z,15.73
2023-05-11T01:08:06.749Z,15.70
2023-05-11T01:11:21.505Z,15.64
2023-05-11T01:14:16.651Z,15.67
2023-05-11T01:16:49.357Z,15.64
2023-05-11T01:19:56.538Z,15.59
2023-05-11T01:23:04.300Z,15.58
2023-05-11T01:26:08.151Z,15.56
2023-05-11T01:29:06.676Z,15.61
2023-05-11T01:31:35.277Z,15.59
2023-05-11T01:34:07.466Z,15.60
2023-05-11T01:36:42.756Z,15.64
2023-05-11T01:39:12.791Z,15.54
2023-05-11T01:41:45.720Z,15.55
2023-05-11T01:44:16.493Z,15.58
2023-05-11T01:46:44.423Z,15.58
2023-05-11T01:49:14.027Z,15.43
2023-05-11T01:51:43.853Z,15.47
2023-05-11T01:54:12.110Z,15.42
2023-05-11T01:56:43.136Z,15.45
2023-05-11T01:59:12.691Z,15.47
2023-05-11T02:01:41.296Z,15.49
2023-05-11T02:04:11.185Z,15.49
2023-05-11T02:06:39.947Z,15.48
2023-05-11T02:09:10.007Z,15.44
2023-05-11T02:11:40.314Z,15.29
2023-05-11T02:14:10.152Z,15.36
2023-05-11T02:16:38.785Z,15.29
2023-05-11T02:19:08.164Z,15.15
2023-05-11T02:21:38.136Z,15.13
2023-05-11T02:24:07.773Z,15.13
2023-05-11T02:26:36.713Z,15.12
2023-05-11T02:29:04.398Z,15.18
2023-05-11T02:31:42.404Z,15.17
2023-05-11T02:34:26.215Z,15.21
2023-05-11T02:37:00.909Z,15.22
2023-05-11T02:39:35.225Z,15.19
2023-05-11T02:42:18.180Z,15.24
2023-05-11T02:44:58.652Z,15.25
2023-05-11T02:47:31.548Z,15.20
2023-05-11T02:50:04.192Z,15.25
2023-05-11T02:52:36.271Z,15.20
2023-05-11T02:55:05.578Z,15.19
2023-05-11T02:57:33.642Z,15.19
2023-05-11T03:00:06.596Z,15.23
2023-05-11T03:02:34.439Z,15.27
2023-05-11T03:05:02.096Z,15.28
2023-05-11T03:07:32.919Z,15.29
2023-05-11T03:10:02.939Z,15.31
2023-05-11T03:12:35.570Z,15.31
2023-05-11T03:15:04.728Z,15.24
2023-05-11T03:17:35.826Z,15.12
2023-05-11T03:20:06.249Z,15.20
2023-05-11T03:22:36.895Z,15.23
2023-05-11T03:25:07.142Z,15.28
2023-05-11T03:27:36.025Z,15.29
2023-05-11T03:30:08.698Z,15.34
2023-05-11T03:32:41.058Z,15.31
2023-05-11T03:35:09.273Z,15.31
2023-05-11T03:37:39.247Z,15.23
2023-05-11T03:40:09.829Z,15.27
2023-05-11T03:42:57.121Z,15.17
2023-05-11T03:45:29.487Z,15.17
2023-05-11T03:47:57.908Z,15.18
2023-05-11T03:50:27.085Z,15.20
2023-05-11T03:52:55.918Z,15.21
2023-05-11T03:55:24.225Z,15.22
2023-05-11T03:57:52.420Z,15.21
2023-05-11T04:00:20.131Z,15.20
2023-05-11T04:02:47.990Z,15.20
2023-05-11T04:05:15.753Z,15.11
2023-05-11T04:07:46.248Z,15.07
2023-05-11T04:10:13.790Z,15.05
2023-05-11T04:12:42.381Z,15.01
2023-05-11T04:15:10.693Z,15.05
2023-05-11T04:17:38.390Z,15.03
2023-05-11T04:20:08.805Z,15.07
2023-05-11T04:22:36.328Z,15.07
2023-05-11T04:25:04.434Z,15.05
2023-05-11T04:27:34.328Z,15.09
2023-05-11T04:30:02.214Z,15.17
2023-05-11T04:32:30.322Z,15.19
2023-05-11T04:34:59.254Z,15.17
2023-05-11T04:37:29.598Z,15.15
2023-05-11T04:39:58.157Z,15.12
2023-05-11T04:42:25.704Z,14.87
2023-05-11T04:44:55.899Z,14.87
2023-05-11T04:47:23.417Z,14.84
2023-05-11T04:49:51.839Z,14.85
2023-05-11T04:52:19.357Z,14.86
2023-05-11T04:54:49.546Z,14.87
2023-05-11T04:57:17.790Z,14.98
2023-05-11T04:59:47.247Z,15.05
2023-05-11T05:02:14.830Z,15.08
2023-05-11T05:04:42.319Z,15.11
2023-05-11T05:07:10.457Z,15.11
2023-05-11T05:09:37.957Z,15.18
2023-05-11T05:12:05.744Z,15.22
2023-05-11T05:14:33.311Z,15.23
2023-05-11T05:17:02.301Z,15.25
2023-05-11T05:19:30.546Z,15.30
2023-05-11T05:21:58.635Z,15.28
2023-05-11T05:24:26.416Z,15.16
2023-05-11T05:26:53.927Z,15.04
2023-05-11T05:29:22.032Z,15.00
2023-05-11T05:31:49.919Z,15.05
2023-05-11T05:34:18.812Z,14.95
2023-05-11T05:36:46.354Z,14.89
2023-05-11T05:39:14.470Z,14.98
2023-05-11T05:41:42.758Z,15.02
2023-05-11T05:44:11.289Z,15.06
2023-05-11T05:46:39.778Z,15.11
2023-05-11T05:49:07.592Z,15.03
2023-05-11T05:51:37.620Z,14.99
2023-05-11T05:54:05.956Z,15.07
2023-05-11T05:56:35.006Z,15.20
2023-05-11T05:59:02.723Z,15.18
2023-05-11T06:01:30.379Z,15.16
2023-05-11T06:03:59.014Z,15.16
2023-05-11T06:06:27.109Z,15.25
2023-05-11T06:08:54.679Z,15.22
2023-05-11T06:11:22.520Z,15.15
2023-05-11T06:13:52.064Z,15.25
2023-05-11T06:16:20.299Z,15.23
2023-05-11T06:18:49.120Z,15.31
2023-05-11T06:21:16.927Z,15.43
2023-05-11T06:23:44.666Z,15.41
2023-05-11T06:26:12.455Z,15.47
2023-05-11T06:28:40.724Z,15.51
2023-05-11T06:31:13.545Z,15.53
2023-05-11T06:33:42.420Z,15.58
2023-05-11T06:36:18.255Z,15.55
2023-05-11T06:38:46.387Z,15.52
2023-05-11T06:41:13.974Z,15.16
2023-05-11T06:43:42.462Z,15.26
2023-05-11T06:46:22.137Z,15.30
2023-05-11T06:48:50.300Z,15.31
2023-05-11T06:51:17.961Z,15.37
2023-05-11T06:53:45.529Z,15.33
2023-05-11T06:56:13.052Z,15.28
2023-05-11T06:58:40.531Z,15.21
2023-05-11T07:01:08.138Z,15.29
2023-05-11T07:03:36.377Z,15.33
2023-05-11T07:06:04.074Z,15.41
2023-05-11T07:08:31.674Z,15.33
2023-05-11T07:10:59.419Z,15.35
2023-05-11T07:13:26.889Z,15.34
2023-05-11T07:15:57.195Z,15.35
2023-05-11T07:18:25.277Z,15.42
2023-05-11T07:20:52.939Z,15.46
2023-05-11T07:23:20.427Z,15.50
2023-05-11T07:25:48.000Z,15.60
2023-05-11T07:28:15.459Z,15.71
2023-05-11T07:30:42.997Z,15.69
2023-05-11T07:33:10.573Z,15.54
2023-05-11T07:35:38.227Z,15.64
2023-05-11T07:38:07.933Z,15.67
2023-05-11T07:40:35.655Z,15.67
2023-05-11T07:43:03.166Z,15.71
2023-05-11T07:45:31.380Z,15.64
2023-05-11T07:47:58.949Z,15.41
2023-05-11T07:50:26.712Z,15.33
2023-05-11T07:52:54.529Z,15.37
2023-05-11T07:55:24.917Z,15.27
2023-05-11T07:57:54.383Z,15.30
2023-05-11T08:00:22.293Z,15.45
2023-05-11T08:02:49.966Z,15.49
2023-05-11T08:05:18.687Z,15.51
2023-05-11T08:07:47.255Z,15.54
2023-05-11T08:10:14.915Z,15.51
2023-05-11T08:12:42.791Z,15.46
2023-05-11T08:15:11.018Z,15.52
2023-05-11T08:17:38.610Z,15.60
2023-05-11T08:20:07.149Z,15.70
2023-05-11T08:22:34.899Z,15.88
2023-05-11T08:25:03.705Z,15.87
2023-05-11T08:27:31.235Z,15.88
2023-05-11T08:30:00.113Z,15.82
2023-05-11T08:32:27.690Z,15.69
2023-05-11T08:34:55.289Z,15.58
2023-05-11T08:37:23.465Z,15.55
2023-05-11T08:39:51.430Z,15.75
2023-05-11T08:42:19.972Z,15.74
2023-05-11T08:44:49.272Z,15.86
2023-05-11T08:47:23.324Z,15.84
2023-05-11T08:49:54.858Z,16.00
2023-05-11T08:52:22.390Z,15.86
2023-05-11T08:54:49.982Z,15.93
2023-05-11T08:57:18.089Z,15.79
2023-05-11T08:59:49.151Z,15.62
2023-05-11T09:02:20.321Z,15.69
2023-05-11T09:04:49.474Z,15.66
2023-05-11T09:07:17.863Z,15.57
2023-05-11T09:09:47.780Z,15.67
2023-05-11T09:12:16.949Z,15.51
2023-05-11T09:14:46.588Z,15.61
2023-05-11T09:17:14.309Z,15.58
2023-05-11T09:20:02.023Z,15.78
2023-05-11T09:22:33.818Z,15.72
2023-05-11T09:25:04.226Z,15.78
2023-05-11T09:27:32.310Z,15.78
2023-05-11T09:30:23.310Z,15.87
2023-05-11T09:33:00.350Z,15.72
2023-05-11T09:35:35.484Z,15.85
2023-05-11T09:38:14.122Z,15.79
2023-05-11T09:40:50.314Z,15.70
2023-05-11T09:43:25.775Z,15.77
2023-05-11T09:46:01.569Z,15.65
2023-05-11T09:48:32.050Z,15.89
2023-05-11T09:51:06.071Z,15.80
2023-05-11T09:53:45.788Z,15.71
2023-05-11T09:56:15.486Z,15.82
2023-05-11T09:58:57.189Z,15.77
2023-05-11T10:01:35.013Z,15.82
2023-05-11T10:04:20.993Z,15.74
2023-05-11T10:06:53.151Z,15.92
2023-05-11T10:09:25.344Z,15.80
2023-05-11T10:11:55.322Z,15.98
2023-05-11T10:14:24.024Z,15.71
2023-05-11T10:16:52.161Z,15.67
2023-05-11T10:19:20.112Z,15.71
2023-05-11T10:21:48.092Z,15.88
2023-05-11T10:24:18.851Z,15.56
2023-05-11T10:26:48.531Z,15.65
2023-05-11T10:29:19.474Z,15.87
2023-05-11T10:31:48.743Z,16.01
2023-05-11T10:34:17.625Z,15.74
2023-05-11T10:36:47.269Z,16.05
2023-05-11T10:39:14.753Z,16.21
2023-05-11T10:42:06.307Z,16.22
2023-05-11T10:45:06.963Z,16.24
2023-05-11T10:48:10.231Z,16.29
2023-05-11T10:50:49.614Z,16.23
2023-05-11T10:54:10.777Z,16.11
2023-05-11T10:57:02.283Z,16.21
2023-05-11T11:00:14.042Z,16.38
2023-05-11T11:02:42.918Z,16.27
2023-05-11T11:05:15.710Z,16.27
2023-05-11T11:08:04.141Z,16.13
2023-05-11T11:10:45.948Z,16.17
2023-05-11T11:13:14.946Z,16.30
2023-05-11T11:16:05.703Z,15.97
2023-05-11T11:18:33.952Z,16.11
2023-05-11T11:21:02.479Z,16.21
2023-05-11T11:23:50.453Z,16.33
2023-05-11T11:26:50.346Z,16.21
2023-05-11T11:29:18.020Z,16.14
2023-05-11T11:31:45.635Z,16.36
2023-05-11T11:34:28.000Z,16.42
2023-05-11T11:36:55.428Z,16.37
2023-05-11T11:39:25.408Z,16.43
2023-05-11T11:42:07.125Z,16.71
2023-05-11T11:44:35.436Z,16.42
2023-05-11T11:47:22.825Z,16.55
2023-05-11T11:49:53.593Z,16.66
2023-05-11T11:52:27.140Z,16.81
2023-05-11T11:54:57.092Z,16.86
2023-05-11T11:57:46.549Z,16.95
2023-05-11T12:00:19.893Z,16.97
2023-05-11T12:02:47.518Z,16.90
2023-05-11T12:05:21.411Z,17.12
2023-05-11T12:07:51.535Z,17.13
2023-05-11T12:10:23.075Z,16.97
2023-05-11T12:12:54.926Z,16.94
2023-05-11T12:15:32.339Z,17.16
2023-05-11T12:18:02.720Z,17.42
2023-05-11T12:20:30.440Z,17.69
2023-05-11T12:22:57.964Z,17.82
2023-05-11T12:25:25.523Z,17.92
2023-05-11T12:28:03.183Z,17.83
2023-05-11T12:30:33.676Z,17.86
2023-05-11T12:33:04.258Z,17.87
2023-05-11T12:35:34.115Z,17.96
2023-05-11T12:38:02.787Z,17.77
2023-05-11T12:40:31.664Z,17.56
2023-05-11T12:43:00.485Z,17.62
2023-05-11T12:45:29.104Z,17.70
2023-05-11T12:47:58.284Z,17.70
2023-05-11T12:50:25.837Z,17.79
2023-05-11T12:52:53.364Z,18.01
2023-05-11T12:55:30.975Z,18.19
2023-05-11T12:58:18.552Z,18.21
2023-05-11T13:00:57.947Z,18.29
2023-05-11T13:03:28.682Z,18.40
2023-05-11T13:06:08.067Z,18.50
2023-05-11T13:08:44.030Z,18.54
2023-05-11T13:11:24.460Z,18.57
2023-05-11T13:13:54.183Z,18.65
2023-05-11T13:16:33.495Z,18.60
2023-05-11T13:19:03.787Z,18.57
2023-05-11T13:21:33.132Z,18.63
2023-05-11T13:24:03.691Z,18.66
2023-05-11T13:26:31.780Z,18.66
2023-05-11T13:29:10.261Z,18.69
2023-05-11T13:31:50.617Z,18.72
2023-05-11T13:34:19.714Z,18.72
2023-05-11T13:36:47.960Z,18.74
2023-05-11T13:39:15.539Z,18.83
2023-05-11T13:41:43.355Z,18.87
2023-05-11T13:44:11.164Z,18.91
2023-05-11T13:46:38.800Z,18.99
2023-05-11T13:49:06.641Z,19.02
2023-05-11T13:51:34.271Z,18.99
2023-05-11T13:54:02.537Z,18.98
2023-05-11T13:56:31.460Z,18.98
2023-05-11T13:59:00.068Z,19.10
2023-05-11T14:01:28.165Z,19.14
2023-05-11T14:03:56.939Z,19.17
2023-05-11T14:06:25.585Z,19.18
2023-05-11T14:08:53.764Z,19.13
2023-05-11T14:11:21.465Z,19.20
2023-05-11T14:13:49.389Z,19.20
2023-05-11T14:16:20.815Z,19.27
2023-05-11T14:18:50.585Z,19.37
2023-05-11T14:21:18.287Z,19.48
2023-05-11T14:23:57.538Z,19.62
2023-05-11T14:26:33.392Z,19.65
2023-05-11T14:29:00.949Z,19.66
2023-05-11T14:31:29.008Z,19.76
2023-05-11T14:33:56.570Z,19.62
2023-05-11T14:36:24.182Z,19.67
2023-05-11T14:38:51.924Z,19.68
2023-05-11T14:41:19.721Z,19.77
2023-05-11T14:43:49.141Z,19.83
2023-05-11T14:46:17.711Z,19.74
2023-05-11T14:48:45.403Z,19.73
2023-05-11T14:51:13.015Z,19.77
2023-05-11T14:53:40.577Z,19.76
2023-05-11T14:56:08.204Z,19.79
2023-05-11T14:58:35.901Z,19.87
2023-05-11T15:01:04.812Z,19.94
2023-05-11T15:03:32.351Z,20.02
2023-05-11T15:05:59.953Z,20.12
2023-05-11T15:08:30.522Z,20.17
2023-05-11T15:10:58.853Z,20.03
2023-05-11T15:13:26.712Z,19.92
2023-05-11T15:15:54.334Z,19.82
2023-05-11T15:18:22.013Z,19.84
2023-05-11T15:20:49.699Z,19.85
2023-05-11T15:23:17.712Z,19.94
2023-05-11T15:25:46.187Z,20.01
2023-05-11T15:28:14.164Z,19.95
2023-05-11T15:30:42.074Z,19.94
2023-05-11T15:33:10.311Z,19.89
2023-05-11T15:35:38.259Z,19.91
2023-05-11T15:38:06.352Z,19.89
2023-05-11T15:40:34.026Z,19.88
2023-05-11T15:43:01.657Z,19.79
2023-05-11T15:45:30.151Z,19.65
2023-05-11T15:47:58.255Z,19.59
2023-05-11T15:50:26.175Z,19.59
2023-05-11T15:52:53.741Z,19.58
2023-05-11T15:55:21.317Z,19.60
2023-05-11T15:57:49.153Z,19.56
2023-05-11T16:00:17.381Z,19.59
2023-05-11T16:02:45.764Z,19.64
2023-05-11T16:05:13.521Z,19.62
2023-05-11T16:07:41.039Z,19.58
2023-05-11T16:10:09.150Z,19.53
2023-05-11T16:12:36.670Z,19.53
2023-05-11T16:15:05.238Z,19.48
2023-05-11T16:17:32.751Z,19.44
2023-05-11T16:20:00.353Z,19.43
2023-05-11T16:22:28.051Z,19.50
2023-05-11T16:24:55.562Z,19.56
2023-05-11T16:27:23.557Z,19.55
2023-05-11T16:29:52.215Z,19.54
2023-05-11T16:32:20.296Z,19.56
2023-05-11T16:34:47.866Z,19.55
2023-05-11T16:37:16.097Z,19.50
2023-05-11T16:39:44.581Z,19.49
2023-05-11T16:42:12.101Z,19.50
2023-05-11T16:44:39.685Z,19.52
2023-05-11T16:47:07.275Z,19.47
2023-05-11T16:49:34.854Z,19.48
2023-05-11T16:52:02.356Z,19.44
2023-05-11T16:54:29.899Z,19.35
2023-05-11T16:56:57.466Z,19.30
2023-05-11T16:59:25.015Z,19.28
2023-05-11T17:01:52.518Z,19.25
2023-05-11T17:04:20.638Z,19.18
2023-05-11T17:06:48.340Z,19.17
2023-05-11T17:09:16.104Z,19.15
2023-05-11T17:11:43.675Z,19.13
2023-05-11T17:14:11.208Z,19.13
2023-05-11T17:16:38.796Z,19.08
2023-05-11T17:19:06.389Z,19.04
2023-05-11T17:21:34.082Z,19.04
2023-05-11T17:24:01.750Z,18.95
2023-05-11T17:26:43.340Z,18.83
2023-05-11T17:29:15.895Z,18.78
2023-05-11T17:31:43.616Z,18.70
2023-05-11T17:34:11.399Z,18.65
2023-05-11T17:36:39.124Z,18.61
2023-05-11T17:39:06.716Z,18.61
2023-05-11T17:41:34.223Z,18.61
2023-05-11T17:44:01.777Z,18.60
2023-05-11T17:46:29.896Z,18.55
2023-05-11T17:48:58.109Z,18.53
2023-05-11T17:51:25.824Z,18.50
2023-05-11T17:53:53.462Z,18.47
2023-05-11T17:56:22.193Z,18.39
2023-05-11T17:58:51.487Z,18.26
2023-05-11T18:01:19.596Z,18.22
2023-05-11T18:03:47.433Z,18.23
2023-05-11T18:06:15.052Z,18.22
2023-05-11T18:08:42.680Z,18.22
2023-05-11T18:11:11.095Z,18.19
2023-05-11T18:13:38.612Z,18.14
2023-05-11T18:16:06.897Z,18.14
2023-05-11T18:18:34.670Z,18.13
2023-05-11T18:21:10.660Z,18.13
2023-05-11T18:23:38.418Z,18.07
2023-05-11T18:26:06.737Z,18.04
2023-05-11T18:28:34.435Z,18.00
2023-05-11T18:31:01.979Z,17.96
2023-05-11T18:33:29.556Z,17.93
2023-05-11T18:35:57.098Z,17.89
2023-05-11T18:38:24.578Z,17.86
2023-05-11T18:40:53.716Z,17.82
2023-05-11T18:43:21.303Z,17.80
2023-05-11T18:45:50.177Z,17.76
2023-05-11T18:48:17.656Z,17.75
2023-05-11T18:50:45.168Z,17.67
2023-05-11T18:53:12.668Z,17.60
2023-05-11T18:55:52.094Z,17.57
2023-05-11T18:58:20.660Z,17.55
2023-05-11T19:00:50.095Z,17.50
2023-05-11T19:03:19.828Z,17.45
2023-05-11T19:05:48.582Z,17.38
2023-05-11T19:08:16.564Z,17.34
2023-05-11T19:10:45.292Z,17.30
2023-05-11T19:13:13.287Z,17.27
2023-05-11T19:15:40.795Z,17.25
2023-05-11T19:18:08.354Z,17.21
2023-05-11T19:20:36.640Z,17.17
2023-05-11T19:23:05.118Z,17.15
2023-05-11T19:25:32.864Z,17.12
2023-05-11T19:28:01.025Z,17.09
2023-05-11T19:30:28.524Z,17.05
2023-05-11T19:32:56.032Z,17.03
2023-05-11T19:35:23.716Z,17.02
2023-05-11T19:37:51.272Z,17.00
2023-05-11T19:40:44.674Z,16.98
2023-05-11T19:43:08.372Z,16.96
2023-05-11T19:45:37.264Z,16.93
2023-05-11T19:48:05.158Z,16.93
2023-05-11T19:50:32.896Z,16.93
2023-05-11T19:53:00.404Z,16.91
2023-05-11T19:55:27.874Z,16.90
2023-05-11T19:57:55.430Z,16.89
2023-05-11T20:00:25.156Z,16.89
2023-05-11T20:02:53.562Z,16.87
2023-05-11T20:05:21.311Z,16.83
2023-05-11T20:07:48.829Z,16.81
2023-05-11T20:10:16.771Z,16.77
2023-05-11T20:12:44.570Z,16.71
2023-05-11T20:15:12.139Z,16.67
2023-05-11T20:17:40.041Z,16.59
2023-05-11T20:20:08.661Z,16.53
2023-05-11T20:22:37.276Z,16.52
2023-05-11T20:25:13.944Z,16.51
2023-05-11T20:27:45.309Z,16.54
2023-05-11T20:30:13.400Z,16.51
2023-05-11T20:34:06.754Z,16.49
2023-05-11T20:35:29.258Z,16.50
2023-05-11T20:37:57.058Z,16.48
2023-05-11T20:40:25.512Z,16.45
2023-05-11T20:42:53.068Z,16.41
2023-05-11T20:45:20.715Z,16.36
2023-05-11T20:47:48.247Z,16.30
2023-05-11T20:50:15.869Z,16.25
2023-05-11T20:52:43.363Z,16.24
2023-05-11T20:55:11.007Z,16.22
2023-05-11T20:57:38.504Z,16.21
2023-05-11T21:00:07.585Z,16.21
2023-05-11T21:02:35.323Z,16.22
2023-05-11T21:05:03.840Z,16.21
2023-05-11T21:07:31.382Z,16.16
2023-05-11T21:09:59.145Z,16.16
2023-05-11T21:12:26.697Z,16.16
2023-05-11T21:14:56.703Z,16.18
2023-05-11T21:17:24.613Z,16.17
2023-05-11T21:19:52.178Z,16.18
2023-05-11T21:22:19.765Z,16.18
2023-05-11T21:24:47.514Z,16.16
2023-05-11T21:27:15.118Z,16.17
2023-05-11T21:29:42.619Z,16.19
2023-05-11T21:32:10.751Z,16.20
2023-05-11T21:34:38.510Z,16.19
2023-05-11T21:37:06.376Z,16.20
2023-05-11T21:39:33.996Z,16.18
2023-05-11T21:42:03.483Z,16.15
2023-05-11T21:44:30.940Z,16.14
2023-05-11T21:46:58.630Z,16.16
2023-05-11T21:49:26.271Z,16.16
2023-05-11T21:51:53.810Z,16.14
2023-05-11T21:54:22.370Z,16.12
2023-05-11T21:56:52.029Z,16.10
2023-05-11T21:59:19.813Z,16.10
2023-05-11T22:01:49.005Z,16.07
2023-05-11T22:04:16.777Z,16.10
2023-05-11T22:06:44.343Z,16.13
2023-05-11T22:09:12.102Z,16.14
2023-05-11T22:11:39.752Z,16.12
2023-05-11T22:14:07.221Z,16.11
2023-05-11T22:16:34.782Z,16.13
2023-05-11T22:19:02.432Z,16.11
2023-05-11T22:21:30.049Z,16.15
2023-05-11T22:23:57.824Z,16.15
2023-05-11T22:26:26.342Z,16.17
2023-05-11T22:28:53.878Z,16.18
2023-05-11T22:31:21.438Z,16.18
2023-05-11T22:33:49.039Z,16.19
2023-05-11T22:36:16.516Z,16.20
2023-05-11T22:38:44.085Z,16.19
2023-05-11T22:41:11.593Z,16.18
2023-05-11T22:43:39.059Z,16.17
2023-05-11T22:46:06.907Z,16.13
2023-05-11T22:48:34.498Z,16.13
2023-05-11T22:51:06.132Z,16.13
2023-05-11T22:53:33.730Z,16.11
2023-05-11T22:56:07.316Z,16.10
2023-05-11T22:58:35.477Z,16.07
2023-05-11T23:01:03.508Z,16.02
2023-05-11T23:03:31.175Z,15.98
2023-05-11T23:05:58.741Z,15.99
2023-05-11T23:08:26.590Z,15.99
2023-05-11T23:10:54.132Z,15.97
2023-05-11T23:13:21.648Z,15.96
2023-05-11T23:15:49.286Z,15.99
2023-05-11T23:18:16.925Z,15.99
2023-05-11T23:20:44.598Z,15.98
2023-05-11T23:23:12.141Z,15.99
2023-05-11T23:25:39.667Z,15.97
2023-05-11T23:28:11.388Z,15.97
2023-05-11T23:30:39.041Z,16.00
2023-05-11T23:33:06.929Z,16.01
2023-05-11T23:35:34.436Z,16.03
2023-05-11T23:38:01.985Z,16.03
2023-05-11T23:40:29.833Z,16.02
2023-05-11T23:42:57.439Z,15.99
2023-05-11T23:45:26.079Z,15.97
2023-05-11T23:47:53.758Z,15.94
2023-05-11T23:50:21.405Z,15.93
2023-05-11T23:52:49.598Z,15.92
2023-05-11T23:55:17.272Z,15.93
2023-05-11T23:57:44.967Z,15.93
